createdAt,value
2023-03-06T00:00:54.755Z,13.40
2023-03-06T00:03:26.032Z,15.10
2023-03-06T00:05:55.415Z,14.68
2023-03-06T00:08:23.128Z,16.85
2023-03-06T00:10:50.872Z,18.88
2023-03-06T00:13:19.897Z,18.55
2023-03-06T00:15:48.229Z,17.73
2023-03-06T00:18:16.217Z,17.00
2023-03-06T00:20:46.168Z,18.35
2023-03-06T00:23:14.022Z,19.70
2023-03-06T00:25:43.450Z,20.83
2023-03-06T00:28:12.179Z,21.55
2023-03-06T00:30:40.101Z,25.80
2023-03-06T00:33:08.258Z,26.10
2023-03-06T00:35:35.920Z,23.83
2023-03-06T00:38:06.418Z,26.95
2023-03-06T00:40:34.020Z,21.90
2023-03-06T00:43:01.640Z,23.08
2023-03-06T00:45:29.226Z,23.48
2023-03-06T00:47:56.822Z,21.42
2023-03-06T00:50:25.386Z,22.55
2023-03-06T00:52:53.222Z,20.95
2023-03-06T00:55:22.674Z,21.25
2023-03-06T00:57:50.291Z,22.17
2023-03-06T01:00:18.755Z,19.60
2023-03-06T01:02:46.384Z,22.02
2023-03-06T01:05:14.985Z,23.83
2023-03-06T01:07:42.942Z,25.45
2023-03-06T01:10:12.275Z,22.92
2023-03-06T01:12:41.243Z,22.02
2023-03-06T01:15:09.786Z,24.95
2023-03-06T01:17:37.411Z,25.30
2023-03-06T01:20:06.628Z,24.73
2023-03-06T01:22:34.351Z,23.00
2023-03-06T01:25:01.937Z,21.50
2023-03-06T01:27:29.570Z,18.98
2023-03-06T01:29:58.735Z,20.60
2023-03-06T01:32:26.472Z,20.95
2023-03-06T01:34:54.818Z,18.80
2023-03-06T01:37:22.488Z,18.27
2023-03-06T01:39:50.118Z,19.88
2023-03-06T01:42:17.782Z,17.65
2023-03-06T01:45:05.686Z,18.42
2023-03-06T01:47:35.799Z,15.32
2023-03-06T01:50:04.737Z,17.30
2023-03-06T01:52:37.067Z,16.00
2023-03-06T01:55:09.465Z,17.05
2023-03-06T01:57:41.696Z,17.15
2023-03-06T02:00:13.138Z,16.83
2023-03-06T02:02:48.423Z,16.70
2023-03-06T02:05:16.048Z,19.70
2023-03-06T02:07:45.550Z,19.98
2023-03-06T02:10:15.243Z,20.98
2023-03-06T02:12:44.568Z,23.30
2023-03-06T02:15:16.080Z,21.80
2023-03-06T02:17:44.601Z,21.52
2023-03-06T02:20:21.609Z,19.77
2023-03-06T02:22:56.067Z,22.17
2023-03-06T02:25:34.535Z,23.50
2023-03-06T02:28:02.922Z,21.05
2023-03-06T02:30:31.409Z,19.80
2023-03-06T02:32:59.630Z,22.90
2023-03-06T02:35:30.090Z,20.50
2023-03-06T02:37:59.853Z,21.10
2023-03-06T02:40:27.576Z,22.13
2023-03-06T02:42:58.294Z,22.85
2023-03-06T02:45:33.239Z,23.35
2023-03-06T02:48:00.944Z,23.08
2023-03-06T02:50:29.921Z,24.60
2023-03-06T02:52:57.563Z,23.08
2023-03-06T02:55:25.784Z,23.30
2023-03-06T02:57:56.702Z,25.20
2023-03-06T03:00:25.268Z,25.55
2023-03-06T03:02:53.444Z,27.80
2023-03-06T03:05:21.267Z,24.65
2023-03-06T03:07:55.970Z,26.60
2023-03-06T03:10:24.412Z,26.17
2023-03-06T03:12:52.257Z,25.33
2023-03-06T03:15:21.950Z,26.38
2023-03-06T03:17:49.569Z,29.27
2023-03-06T03:20:19.921Z,27.65
2023-03-06T03:22:49.682Z,28.27
2023-03-06T03:25:17.483Z,29.98
2023-03-06T03:27:45.515Z,28.25
2023-03-06T03:30:14.555Z,30.52
2023-03-06T03:32:43.710Z,30.08
2023-03-06T03:35:12.440Z,32.38
2023-03-06T03:37:41.226Z,31.25
2023-03-06T03:40:10.951Z,29.40
2023-03-06T03:42:39.023Z,29.90
2023-03-06T03:45:08.510Z,30.90
2023-03-06T03:47:36.280Z,31.38
2023-03-06T03:50:06.473Z,30.88
2023-03-06T03:52:34.213Z,31.55
2023-03-06T03:55:01.926Z,30.83
2023-03-06T03:57:30.118Z,29.00
2023-03-06T03:59:58.831Z,28.50
2023-03-06T04:02:41.372Z,27.08
2023-03-06T04:05:22.135Z,24.88
2023-03-06T04:07:50.069Z,23.42
2023-03-06T04:10:17.704Z,24.25
2023-03-06T04:12:45.412Z,20.38
2023-03-06T04:15:13.359Z,18.77
2023-03-06T04:17:41.485Z,19.58
2023-03-06T04:20:14.417Z,18.98
2023-03-06T04:22:43.906Z,19.38
2023-03-06T04:25:12.636Z,17.10
2023-03-06T04:27:40.839Z,17.77
2023-03-06T04:30:09.944Z,17.45
2023-03-06T04:32:37.795Z,16.08
2023-03-06T04:35:06.919Z,15.43
2023-03-06T04:37:40.347Z,17.48
2023-03-06T04:40:17.960Z,17.92
2023-03-06T04:42:45.708Z,16.67
2023-03-06T04:45:13.337Z,18.38
2023-03-06T04:47:41.209Z,20.70
2023-03-06T04:50:10.379Z,19.35
2023-03-06T04:52:38.058Z,21.00
2023-03-06T04:55:08.614Z,19.40
2023-03-06T04:57:37.649Z,19.95
2023-03-06T05:00:08.837Z,19.33
2023-03-06T05:02:37.221Z,17.85
2023-03-06T05:05:06.053Z,18.63
2023-03-06T05:07:33.795Z,22.10
2023-03-06T05:10:01.469Z,20.35
2023-03-06T05:12:29.131Z,21.58
2023-03-06T05:14:58.860Z,20.88
2023-03-06T05:17:26.464Z,25.48
2023-03-06T05:19:54.328Z,23.15
2023-03-06T05:22:22.059Z,25.25
2023-03-06T05:24:49.663Z,26.60
2023-03-06T05:27:17.274Z,26.45
2023-03-06T05:29:44.945Z,27.08
2023-03-06T05:32:14.143Z,23.40
2023-03-06T05:34:41.881Z,25.40
2023-03-06T05:37:09.717Z,26.80
2023-03-06T05:39:37.407Z,22.95
2023-03-06T05:42:05.228Z,24.95
2023-03-06T05:44:33.341Z,26.88
2023-03-06T05:47:01.005Z,24.10
2023-03-06T05:49:33.054Z,25.40
2023-03-06T05:52:00.749Z,27.23
2023-03-06T05:54:28.364Z,26.05
2023-03-06T05:56:57.243Z,24.30
2023-03-06T05:59:27.992Z,23.80
2023-03-06T06:01:56.082Z,24.90
2023-03-06T06:04:24.926Z,22.52
2023-03-06T06:06:54.841Z,23.88
2023-03-06T06:09:23.323Z,21.38
2023-03-06T06:11:52.685Z,21.35
2023-03-06T06:14:20.629Z,22.65
2023-03-06T06:16:48.446Z,22.65
2023-03-06T06:19:18.712Z,26.27
2023-03-06T06:21:47.929Z,24.05
2023-03-06T06:24:18.939Z,24.50
2023-03-06T06:26:47.162Z,22.70
2023-03-06T06:29:14.829Z,24.35
2023-03-06T06:31:42.734Z,22.20
2023-03-06T06:34:12.472Z,24.50
2023-03-06T06:36:40.524Z,24.30
2023-03-06T06:39:09.066Z,21.77
2023-03-06T06:42:09.729Z,25.80
2023-03-06T06:44:25.725Z,24.48
2023-03-06T06:49:41.090Z,22.42
2023-03-06T06:52:08.719Z,26.77
2023-03-06T06:54:36.436Z,27.60
2023-03-06T06:57:05.739Z,25.48
2023-03-06T06:59:33.428Z,24.83
2023-03-06T07:02:02.342Z,28.75
2023-03-06T07:04:29.994Z,25.10
2023-03-06T07:06:57.853Z,25.23
2023-03-06T07:09:26.448Z,23.60
2023-03-06T07:11:54.297Z,23.95
2023-03-06T07:14:23.287Z,23.15
2023-03-06T07:16:50.991Z,21.23
2023-03-06T07:19:18.596Z,20.13
2023-03-06T07:21:46.255Z,22.48
2023-03-06T07:24:14.004Z,22.70
2023-03-06T07:26:41.692Z,20.95
2023-03-06T07:29:09.414Z,22.10
2023-03-06T07:31:38.592Z,21.30
2023-03-06T07:34:06.404Z,21.83
2023-03-06T07:36:34.571Z,21.92
2023-03-06T07:39:02.339Z,23.70
2023-03-06T07:41:30.039Z,23.52
2023-03-06T07:43:57.680Z,23.33
2023-03-06T07:46:25.391Z,25.10
2023-03-06T07:48:54.481Z,24.65
2023-03-06T07:51:23.442Z,26.02
2023-03-06T07:53:51.587Z,24.48
2023-03-06T07:56:19.377Z,28.30
2023-03-06T07:58:48.362Z,26.15
2023-03-06T08:01:17.988Z,27.00
2023-03-06T08:03:45.817Z,24.05
2023-03-06T08:06:17.512Z,24.75
2023-03-06T08:08:46.723Z,24.70
2023-03-06T08:11:16.400Z,23.30
2023-03-06T08:13:44.407Z,24.38
2023-03-06T08:16:12.473Z,22.52
2023-03-06T08:18:40.492Z,24.05
2023-03-06T08:21:10.987Z,22.95
2023-03-06T08:23:41.094Z,21.17
2023-03-06T08:26:12.522Z,21.77
2023-03-06T08:28:40.176Z,21.50
2023-03-06T08:31:13.118Z,20.75
2023-03-06T08:33:42.034Z,20.70
2023-03-06T08:36:10.342Z,18.70
2023-03-06T08:38:38.003Z,19.23
2023-03-06T08:41:07.494Z,18.38
2023-03-06T08:43:35.982Z,19.33
2023-03-06T08:46:04.170Z,20.13
2023-03-06T08:48:31.805Z,19.50
2023-03-06T08:50:59.467Z,19.55
2023-03-06T08:53:41.790Z,16.35
2023-03-06T08:56:18.125Z,18.70
2023-03-06T08:58:45.816Z,17.35
2023-03-06T09:01:15.123Z,18.00
2023-03-06T09:03:42.906Z,19.65
2023-03-06T09:06:10.608Z,18.75
2023-03-06T09:08:38.340Z,19.25
2023-03-06T09:11:06.192Z,22.33
2023-03-06T09:13:35.252Z,20.52
2023-03-06T09:16:02.889Z,20.90
2023-03-06T09:18:30.599Z,21.08
2023-03-06T09:20:58.236Z,23.88
2023-03-06T09:23:25.922Z,22.77
2023-03-06T09:25:54.321Z,23.20
2023-03-06T09:28:22.143Z,23.15
2023-03-06T09:30:51.370Z,23.25
2023-03-06T09:33:19.530Z,24.45
2023-03-06T09:35:50.899Z,23.00
2023-03-06T09:38:19.168Z,25.90
2023-03-06T09:41:01.044Z,25.15
2023-03-06T09:43:32.763Z,24.05
2023-03-06T09:46:02.744Z,25.90
2023-03-06T09:48:40.723Z,27.58
2023-03-06T09:51:16.068Z,27.30
2023-03-06T09:53:56.498Z,28.45
2023-03-06T09:56:31.001Z,25.27
2023-03-06T09:59:06.071Z,26.70
2023-03-06T10:01:41.845Z,30.15
2023-03-06T10:04:18.921Z,31.80
2023-03-06T10:06:49.361Z,30.38
2023-03-06T10:09:20.760Z,30.85
2023-03-06T10:11:53.867Z,31.58
2023-03-06T10:14:30.238Z,29.15
2023-03-06T10:16:59.530Z,28.80
2023-03-06T10:19:33.844Z,31.75
2023-03-06T10:22:05.232Z,28.77
2023-03-06T10:24:47.740Z,30.48
2023-03-06T10:27:23.520Z,28.23
2023-03-06T10:30:03.169Z,32.25
2023-03-06T10:32:48.377Z,30.05
2023-03-06T10:35:20.372Z,33.15
2023-03-06T10:37:48.961Z,32.20
2023-03-06T10:40:20.346Z,29.45
2023-03-06T10:42:50.661Z,31.00
2023-03-06T10:45:21.859Z,30.60
2023-03-06T10:47:50.835Z,31.33
2023-03-06T10:50:26.481Z,30.45
2023-03-06T10:53:05.618Z,28.42
2023-03-06T10:55:35.113Z,25.65
2023-03-06T10:58:18.381Z,26.17
2023-03-06T11:00:46.541Z,25.08
2023-03-06T11:03:22.559Z,21.40
2023-03-06T11:06:01.136Z,21.33
2023-03-06T11:08:29.823Z,22.50
2023-03-06T11:11:00.806Z,21.00
2023-03-06T11:13:31.066Z,21.45
2023-03-06T11:16:02.744Z,18.88
2023-03-06T11:18:36.243Z,19.15
2023-03-06T11:21:07.191Z,21.17
2023-03-06T11:23:42.026Z,20.95
2023-03-06T11:26:28.637Z,19.40
2023-03-06T11:29:03.735Z,17.63
2023-03-06T11:31:34.889Z,17.42
2023-03-06T11:34:10.030Z,15.50
2023-03-06T11:36:42.442Z,15.57
2023-03-06T11:39:22.168Z,16.70
2023-03-06T11:41:57.915Z,15.57
2023-03-06T11:44:36.793Z,14.52
2023-03-06T11:47:13.776Z,13.95
2023-03-06T11:49:46.526Z,10.98
2023-03-06T11:52:23.102Z,10.07
2023-03-06T11:54:55.073Z,11.20
2023-03-06T11:57:25.891Z,10.10
2023-03-06T12:00:16.207Z,10.32
2023-03-06T12:03:03.046Z,11.80
2023-03-06T12:05:43.281Z,10.48
2023-03-06T12:08:43.943Z,12.10
2023-03-06T12:11:19.945Z,12.02
2023-03-06T12:14:23.081Z,12.13
2023-03-06T12:17:11.405Z,12.77
2023-03-06T12:19:59.067Z,13.07
2023-03-06T12:22:57.418Z,12.60
2023-03-06T12:25:35.566Z,14.13
2023-03-06T12:28:19.128Z,12.00
2023-03-06T12:31:04.968Z,14.25
2023-03-06T12:33:40.778Z,12.82
2023-03-06T12:36:25.356Z,10.77
2023-03-06T12:39:10.700Z,13.10
2023-03-06T12:41:46.339Z,11.93
2023-03-06T12:44:43.460Z,11.13
2023-03-06T12:47:15.687Z,11.23
2023-03-06T12:49:47.556Z,11.00
2023-03-06T12:52:29.570Z,9.00
2023-03-06T12:55:00.866Z,11.60
2023-03-06T12:57:28.658Z,9.70
2023-03-06T12:59:56.341Z,10.90
2023-03-06T13:02:55.825Z,10.90
2023-03-06T13:05:47.902Z,8.65
2023-03-06T13:08:34.111Z,9.73
2023-03-06T13:11:27.806Z,10.57
2023-03-06T13:13:55.948Z,12.00
2023-03-06T13:16:29.122Z,8.40
2023-03-06T13:19:05.132Z,7.07
2023-03-06T13:22:09.335Z,6.57
2023-03-06T13:24:38.142Z,7.67
2023-03-06T13:27:09.660Z,7.20
2023-03-06T13:30:06.141Z,7.30
2023-03-06T13:32:36.738Z,6.75
2023-03-06T13:35:46.010Z,6.70
2023-03-06T13:38:32.241Z,7.10
2023-03-06T13:41:27.699Z,7.68
2023-03-06T13:43:58.460Z,7.63
2023-03-06T13:46:29.947Z,7.10
2023-03-06T13:49:06.463Z,6.57
2023-03-06T13:51:36.523Z,6.68
2023-03-06T13:54:29.976Z,6.78
2023-03-06T13:57:13.552Z,7.50
2023-03-06T14:00:11.778Z,5.93
2023-03-06T14:02:56.054Z,6.55
2023-03-06T14:05:24.215Z,5.95
2023-03-06T14:08:06.342Z,6.13
2023-03-06T14:10:36.318Z,6.53
2023-03-06T14:13:06.491Z,5.40
2023-03-06T14:15:44.483Z,5.35
2023-03-06T14:18:19.164Z,6.57
2023-03-06T14:20:51.234Z,6.43
2023-03-06T14:23:35.233Z,8.10
2023-03-06T14:26:09.439Z,10.27
2023-03-06T14:28:37.552Z,8.73
2023-03-06T14:31:07.133Z,9.15
2023-03-06T14:33:42.807Z,10.20
2023-03-06T14:36:15.704Z,9.02
2023-03-06T14:38:49.995Z,9.40
2023-03-06T14:41:26.631Z,10.65
2023-03-06T14:44:08.769Z,11.90
2023-03-06T14:46:37.850Z,10.27
2023-03-06T14:49:08.303Z,12.85
2023-03-06T14:51:40.259Z,11.85
2023-03-06T14:54:08.180Z,14.63
2023-03-06T14:56:42.877Z,14.00
2023-03-06T14:59:16.324Z,12.00
2023-03-06T15:01:49.270Z,13.88
2023-03-06T15:04:26.423Z,13.43
2023-03-06T15:06:56.187Z,12.75
2023-03-06T15:09:27.166Z,13.15
2023-03-06T15:12:01.000Z,12.60
2023-03-06T15:14:34.776Z,12.05
2023-03-06T15:17:29.627Z,13.73
2023-03-06T15:19:59.005Z,11.85
2023-03-06T15:22:30.733Z,12.77
2023-03-06T15:25:21.714Z,13.65
2023-03-06T15:27:52.163Z,13.68
2023-03-06T15:30:27.726Z,13.50
2023-03-06T15:33:20.521Z,13.75
2023-03-06T15:35:54.876Z,13.50
2023-03-06T15:38:26.978Z,15.40
2023-03-06T15:40:56.816Z,15.00
2023-03-06T15:43:24.449Z,14.20
2023-03-06T15:45:55.562Z,16.88
2023-03-06T15:48:24.550Z,15.65
2023-03-06T15:50:52.212Z,14.65
2023-03-06T15:53:20.303Z,14.23
2023-03-06T15:55:48.610Z,14.45
2023-03-06T15:58:20.306Z,13.15
2023-03-06T16:00:48.160Z,13.00
2023-03-06T16:03:15.872Z,14.57
2023-03-06T16:05:44.868Z,13.43
2023-03-06T16:08:14.788Z,13.55
2023-03-06T16:10:44.954Z,13.80
2023-03-06T16:13:17.078Z,14.27
2023-03-06T16:15:47.955Z,14.85
2023-03-06T16:18:15.727Z,13.50
2023-03-06T16:20:44.841Z,14.05
2023-03-06T16:23:12.494Z,15.60
2023-03-06T16:25:41.551Z,13.73
2023-03-06T16:28:12.825Z,15.00
2023-03-06T16:30:41.784Z,15.10
2023-03-06T16:33:11.338Z,14.68
2023-03-06T16:35:39.734Z,16.85
2023-03-06T16:38:09.569Z,16.55
2023-03-06T16:40:41.153Z,15.13
2023-03-06T16:43:10.396Z,16.25
2023-03-06T16:45:40.675Z,16.90
2023-03-06T16:48:08.966Z,17.08
2023-03-06T16:50:39.294Z,17.83
2023-03-06T16:53:08.944Z,18.10
2023-03-06T16:55:36.737Z,18.83
2023-03-06T16:58:05.013Z,17.55
2023-03-06T17:00:33.312Z,19.00
2023-03-06T17:03:02.586Z,19.35
2023-03-06T17:05:33.004Z,18.55
2023-03-06T17:08:00.665Z,20.38
2023-03-06T17:10:29.915Z,18.20
2023-03-06T17:12:58.062Z,19.70
2023-03-06T17:15:25.846Z,19.48
2023-03-06T17:17:53.485Z,21.00
2023-03-06T17:20:21.712Z,19.48
2023-03-06T17:22:49.444Z,18.30
2023-03-06T17:25:17.114Z,18.30
2023-03-06T17:27:46.125Z,18.85
2023-03-06T17:30:15.707Z,17.80
2023-03-06T17:32:43.477Z,18.38
2023-03-06T17:35:11.354Z,17.02
2023-03-06T17:37:39.128Z,17.23
2023-03-06T17:40:09.782Z,18.08
2023-03-06T17:42:37.561Z,17.80
2023-03-06T17:45:09.285Z,17.40
2023-03-06T17:47:36.940Z,18.08
2023-03-06T17:50:04.987Z,17.00
2023-03-06T17:52:33.340Z,16.70
2023-03-06T17:55:00.945Z,15.60
2023-03-06T17:57:28.477Z,16.23
2023-03-06T17:59:56.315Z,15.88
2023-03-06T18:02:25.283Z,17.70
2023-03-06T18:04:53.298Z,15.77
2023-03-06T18:07:20.978Z,17.73
2023-03-06T18:09:48.837Z,18.33
2023-03-06T18:12:16.707Z,18.95
2023-03-06T18:14:44.438Z,18.45
2023-03-06T18:17:12.084Z,20.63
2023-03-06T18:19:41.261Z,16.55
2023-03-06T18:22:08.937Z,20.05
2023-03-06T18:24:37.383Z,19.38
2023-03-06T18:27:05.041Z,18.48
2023-03-06T18:29:32.685Z,20.33
2023-03-06T18:32:00.423Z,19.02
2023-03-06T18:34:28.308Z,18.75
2023-03-06T18:36:57.342Z,20.30
2023-03-06T18:39:25.063Z,19.85
2023-03-06T18:41:53.325Z,19.40
2023-03-06T18:44:21.034Z,18.25
2023-03-06T18:46:48.738Z,19.08
2023-03-06T18:49:16.447Z,17.17
2023-03-06T18:51:44.119Z,20.23
2023-03-06T18:54:13.134Z,19.15
2023-03-06T18:56:44.038Z,19.30
2023-03-06T18:59:14.361Z,21.63
2023-03-06T19:01:44.203Z,18.15
2023-03-06T19:04:12.238Z,20.63
2023-03-06T19:06:40.748Z,20.80
2023-03-06T19:09:09.206Z,19.73
2023-03-06T19:11:38.254Z,19.15
2023-03-06T19:14:06.057Z,22.05
2023-03-06T19:16:34.943Z,20.90
2023-03-06T19:19:02.701Z,21.73
2023-03-06T19:21:30.619Z,19.23
2023-03-06T19:23:58.876Z,20.23
2023-03-06T19:26:27.939Z,20.15
2023-03-06T19:28:56.954Z,17.90
2023-03-06T19:31:27.092Z,18.27
2023-03-06T19:33:56.575Z,19.42
2023-03-06T19:36:27.591Z,18.20
2023-03-06T19:38:56.080Z,17.75
2023-03-06T19:41:23.902Z,17.40
2023-03-06T19:43:54.240Z,16.67
2023-03-06T19:46:24.353Z,17.50
2023-03-06T19:48:55.928Z,16.35
2023-03-06T19:51:23.716Z,17.27
2023-03-06T19:53:51.464Z,18.00
2023-03-06T19:56:21.063Z,15.93
2023-03-06T19:58:49.036Z,17.40
2023-03-06T20:01:18.216Z,17.00
2023-03-06T20:03:47.523Z,17.52
2023-03-06T20:06:17.375Z,18.05
2023-03-06T20:08:46.444Z,17.75
2023-03-06T20:11:18.907Z,19.80
2023-03-06T20:13:47.739Z,19.75
2023-03-06T20:16:15.691Z,19.95
2023-03-06T20:18:43.914Z,19.35
2023-03-06T20:21:13.189Z,20.80
2023-03-06T20:23:41.309Z,19.30
2023-03-06T20:26:11.777Z,20.75
2023-03-06T20:28:40.693Z,17.90
2023-03-06T20:31:08.910Z,17.80
2023-03-06T20:33:36.885Z,15.75
2023-03-06T20:36:05.363Z,15.98
2023-03-06T20:38:34.350Z,16.30
2023-03-06T20:41:01.961Z,16.52
2023-03-06T20:43:29.599Z,15.30
2023-03-06T20:45:58.752Z,16.48
2023-03-06T20:48:26.442Z,14.65
2023-03-06T20:51:02.198Z,15.80
2023-03-06T20:53:30.178Z,16.25
2023-03-06T20:55:59.474Z,17.30
2023-03-06T20:58:30.000Z,15.93
2023-03-06T21:00:58.168Z,15.65
2023-03-06T21:03:26.070Z,16.20
2023-03-06T21:05:53.687Z,16.98
2023-03-06T21:08:21.420Z,16.08
2023-03-06T21:10:49.184Z,18.27
2023-03-06T21:13:18.522Z,17.83
2023-03-06T21:15:47.466Z,15.98
2023-03-06T21:18:15.455Z,19.95
2023-03-06T21:20:43.325Z,19.02
2023-03-06T21:23:10.988Z,18.73
2023-03-06T21:25:38.598Z,18.85
2023-03-06T21:28:06.200Z,20.55
2023-03-06T21:30:35.343Z,20.38
2023-03-06T21:33:03.793Z,18.60
2023-03-06T21:35:31.442Z,19.73
2023-03-06T21:37:59.092Z,22.15
2023-03-06T21:40:26.746Z,18.58
2023-03-06T21:42:54.370Z,18.90
2023-03-06T21:45:21.956Z,19.73
2023-03-06T21:47:51.196Z,19.73
2023-03-06T21:50:19.023Z,20.33
2023-03-06T21:52:46.628Z,19.98
2023-03-06T21:55:14.308Z,21.77
2023-03-06T21:57:41.947Z,19.77
2023-03-06T22:00:12.542Z,19.25
2023-03-06T22:02:40.191Z,23.45
2023-03-06T22:05:09.871Z,23.63
2023-03-06T22:07:38.240Z,23.05
2023-03-06T22:10:07.306Z,24.05
2023-03-06T22:12:35.209Z,25.08
2023-03-06T22:15:03.522Z,22.17
2023-03-06T22:17:31.481Z,21.52
2023-03-06T22:19:59.309Z,23.85
2023-03-06T22:22:28.369Z,23.25
2023-03-06T22:24:56.047Z,23.80
2023-03-06T22:27:23.723Z,23.77
2023-03-06T22:29:52.583Z,25.83
2023-03-06T22:32:20.662Z,23.10
2023-03-06T22:34:48.381Z,23.05
2023-03-06T22:37:16.058Z,21.70
2023-03-06T22:39:45.033Z,24.42
2023-03-06T22:42:12.617Z,23.35
2023-03-06T22:44:40.421Z,25.27
2023-03-06T22:47:08.170Z,21.98
2023-03-06T22:49:35.849Z,25.27
2023-03-06T22:52:03.607Z,23.58
2023-03-06T22:54:31.228Z,24.02
2023-03-06T22:57:00.199Z,24.73
2023-03-06T22:59:27.838Z,24.10
2023-03-06T23:01:55.478Z,26.08
2023-03-06T23:04:23.168Z,26.45
2023-03-06T23:06:50.811Z,28.58
2023-03-06T23:09:20.649Z,29.63
2023-03-06T23:12:09.095Z,25.90
2023-03-06T23:14:55.459Z,28.60
2023-03-06T23:17:41.453Z,28.85
2023-03-06T23:20:27.737Z,28.75
2023-03-06T23:23:13.865Z,29.52
2023-03-06T23:25:41.516Z,27.52
2023-03-06T23:28:10.526Z,27.73
2023-03-06T23:30:39.037Z,28.33
2023-03-06T23:33:06.669Z,25.60
2023-03-06T23:35:34.582Z,27.52
2023-03-06T23:38:03.227Z,27.35
2023-03-06T23:40:32.545Z,28.00
2023-03-06T23:43:00.386Z,24.38
2023-03-06T23:45:29.410Z,24.38
2023-03-06T23:47:57.309Z,27.70
2023-03-06T23:50:26.016Z,25.92
2023-03-06T23:52:54.346Z,26.10
2023-03-06T23:55:22.937Z,26.45
2023-03-06T23:57:50.551Z,20.23
